Time;durP1;ratioP1;P1;durP2;ratioP2;P2;SDS_P1;SDS_P2;PMS_P1;PMS_P2;Temp;Humidity;BMP_temperature;BMP_pressure;BME280_temperature;BME280_humidity;BME280_pressure;Samples;Min_cycle;Max_cycle;Signal;HPM_P1;HPM_P2
2022/01/24 00:02:14;;;;;;;413.93;67.00;;;6.50;99.90;;;;;;6108500;23;20472;-78
2022/01/24 00:04:42;;;;;;;257.43;41.30;;;6.50;99.90;;;;;;6108191;23;20432;-78
2022/01/24 00:07:10;;;;;;;378.87;60.33;;;6.50;99.90;;;;;;6108306;23;20437;-78
2022/01/24 00:09:39;;;;;;;185.87;38.23;;;6.50;99.90;;;;;;6143568;23;20409;-78
2022/01/24 00:12:18;;;;;;;256.80;59.90;;;6.50;99.90;;;;;;6108630;23;20409;-78
2022/01/24 00:17:37;;;;;;;221.40;40.40;;;6.50;99.90;;;;;;6126679;23;20473;-79
2022/01/24 00:28:26;;;;;;;301.20;61.73;;;6.40;99.90;;;;;;6108131;23;20405;-78
2022/01/24 00:30:55;;;;;;;163.63;40.70;;;6.40;99.90;;;;;;6107740;23;20433;-78
2022/01/24 00:33:24;;;;;;;263.60;51.67;;;6.40;99.90;;;;;;6134190;23;20500;-78
2022/01/24 00:35:52;;;;;;;369.63;58.17;;;6.40;99.90;;;;;;6134237;23;20420;-78
2022/01/24 00:38:20;;;;;;;292.27;53.23;;;6.40;99.90;;;;;;6108211;23;20418;-78
2022/01/24 00:40:50;;;;;;;180.53;42.03;;;6.50;99.90;;;;;;6133947;23;20408;-79
2022/01/24 00:43:26;;;;;;;439.43;56.23;;;6.50;99.90;;;;;;6143347;23;20409;-78
2022/01/24 00:46:02;;;;;;;231.27;55.97;;;6.40;99.90;;;;;;6105863;23;20905;-79
2022/01/24 00:48:56;;;;;;;152.23;48.33;;;6.40;99.90;;;;;;6105853;23;20441;-78
2022/01/24 00:56:52;;;;;;;158.97;51.07;;;6.40;99.90;;;;;;6131952;23;20452;-79
2022/01/24 00:59:20;;;;;;;119.70;41.73;;;6.40;99.90;;;;;;6107230;23;20438;-78
2022/01/24 01:01:50;;;;;;;132.37;45.57;;;6.40;99.90;;;;;;6107840;23;20885;-79
2022/01/24 01:04:21;;;;;;;268.87;69.53;;;6.40;99.90;;;;;;6107406;23;20513;-78
2022/01/24 01:06:50;;;;;;;328.93;55.23;;;6.40;99.90;;;;;;6106766;23;20461;-78
2022/01/24 01:20:26;;;;;;;221.13;47.40;;;6.30;99.90;;;;;;6106847;23;20437;-78
2022/01/24 01:22:54;;;;;;;355.77;54.70;;;6.30;99.90;;;;;;6142651;23;20857;-78
2022/01/24 01:25:23;;;;;;;231.77;53.93;;;6.30;99.90;;;;;;6107277;23;20434;-79
2022/01/24 01:27:53;;;;;;;206.07;39.87;;;6.30;99.90;;;;;;6106426;23;20512;-78
2022/01/24 01:30:35;;;;;;;344.43;44.63;;;6.30;99.90;;;;;;6105957;23;20422;-78
2022/01/24 01:33:14;;;;;;;237.13;55.30;;;6.30;99.90;;;;;;6142149;23;20437;-78
2022/01/24 01:35:56;;;;;;;147.27;43.13;;;6.30;99.90;;;;;;6105688;23;20417;-79
2022/01/24 01:38:43;;;;;;;193.87;64.77;;;6.30;99.90;;;;;;6132769;23;20710;-79
2022/01/24 01:52:36;;;;;;;167.53;59.13;;;6.20;99.90;;;;;;6105179;23;20463;-78
2022/01/24 01:55:15;;;;;;;695.47;223.67;;;6.20;99.90;;;;;;6104327;23;20432;-79
2022/01/24 01:57:43;;;;;;;254.07;94.10;;;6.30;99.90;;;;;;6104286;23;20456;-78
2022/01/24 02:00:15;;;;;;;334.40;59.00;;;6.30;99.90;;;;;;6131007;23;20425;-78
2022/01/24 02:02:43;;;;;;;261.30;49.50;;;6.20;99.90;;;;;;6140657;23;20410;-77
2022/01/24 02:05:13;;;;;;;222.67;43.53;;;6.20;99.90;;;;;;6105233;23;20989;-78
2022/01/24 02:07:48;;;;;;;273.30;51.83;;;6.30;99.90;;;;;;6130691;23;20512;-78
2022/01/24 02:10:18;;;;;;;211.37;35.87;;;6.30;99.90;;;;;;6130820;23;20721;-79
2022/01/24 02:12:47;;;;;;;224.13;32.20;;;6.30;99.90;;;;;;6104662;23;20897;-79
2022/01/24 02:15:22;;;;;;;169.60;46.23;;;6.20;99.90;;;;;;6104199;23;20451;-77
2022/01/24 02:18:01;;;;;;;167.63;44.70;;;6.20;99.90;;;;;;6105096;23;20447;-78
2022/01/24 02:20:43;;;;;;;288.40;40.47;;;6.30;99.90;;;;;;6130606;23;20425;-77
2022/01/24 02:23:38;;;;;;;295.07;48.47;;;6.30;99.90;;;;;;6104130;23;20464;-80
2022/01/24 02:26:11;;;;;;;242.87;48.10;;;6.20;99.90;;;;;;6104231;23;20445;-78
2022/01/24 02:28:56;;;;;;;287.83;43.50;;;6.30;99.90;;;;;;6104368;23;20421;-77
2022/01/24 02:31:40;;;;;;;99.10;48.20;;;6.20;99.90;;;;;;6140563;23;20441;-78
2022/01/24 02:34:22;;;;;;;114.47;48.00;;;6.30;99.90;;;;;;6105297;23;20409;-77
2022/01/24 02:36:51;;;;;;;266.93;43.97;;;6.30;99.90;;;;;;6140061;23;20421;-79
2022/01/24 02:53:34;;;;;;;373.50;112.47;;;6.20;99.90;;;;;;5157914;27;20812;-80
2022/01/24 02:56:02;;;;;;;306.73;46.97;;;6.20;99.90;;;;;;5143620;27;20521;-80
2022/01/24 02:58:33;;;;;;;345.50;63.37;;;6.20;99.90;;;;;;5138111;28;20512;-79
2022/01/24 03:01:06;;;;;;;243.27;43.50;;;6.20;99.90;;;;;;5138703;28;20482;-79
2022/01/24 03:03:36;;;;;;;218.10;32.90;;;6.20;99.90;;;;;;5138237;28;20438;-79
2022/01/24 03:06:07;;;;;;;386.37;60.60;;;6.20;99.90;;;;;;5138088;28;20470;-80
2022/01/24 03:08:38;;;;;;;219.17;57.07;;;6.20;99.90;;;;;;5137973;28;20439;-79
2022/01/24 03:11:06;;;;;;;147.03;47.50;;;6.20;99.90;;;;;;5138715;28;20438;-79
2022/01/24 03:13:36;;;;;;;311.20;55.40;;;6.20;99.90;;;;;;5135594;27;20440;-80
2022/01/24 03:16:06;;;;;;;278.70;54.57;;;6.20;99.90;;;;;;5139750;28;20494;-79
2022/01/24 03:18:35;;;;;;;243.23;34.90;;;6.20;99.90;;;;;;5153156;27;20460;-79
2022/01/24 03:21:04;;;;;;;256.23;62.30;;;6.20;99.90;;;;;;5159864;27;20504;-79
2022/01/24 03:23:32;;;;;;;274.53;39.57;;;6.20;99.90;;;;;;5158340;27;20472;-79
2022/01/24 03:26:01;;;;;;;244.80;57.60;;;6.20;99.90;;;;;;5141202;27;21047;-80
2022/01/24 03:28:29;;;;;;;163.50;42.43;;;6.20;99.90;;;;;;5142712;27;20549;-78
2022/01/24 03:30:59;;;;;;;227.27;44.90;;;6.20;99.90;;;;;;5160037;27;20599;-79
2022/01/24 03:33:27;;;;;;;189.27;41.03;;;6.20;99.90;;;;;;5157770;27;20812;-79
2022/01/24 03:35:55;;;;;;;238.27;40.27;;;6.20;99.90;;;;;;5155666;27;20457;-80
2022/01/24 03:38:24;;;;;;;289.27;64.97;;;6.20;99.90;;;;;;5139293;27;20482;-80
2022/01/24 03:40:55;;;;;;;252.97;43.77;;;6.20;99.90;;;;;;5140222;27;20479;-79
2022/01/24 03:43:23;;;;;;;237.50;50.57;;;6.20;99.90;;;;;;5137774;28;20445;-80
2022/01/24 03:46:11;;;;;;;192.27;46.73;;;6.20;99.90;;;;;;5138347;28;20538;-80
2022/01/24 03:48:47;;;;;;;233.30;57.53;;;6.20;99.90;;;;;;5137606;28;20442;-79
2022/01/24 03:51:17;;;;;;;282.80;54.27;;;6.20;99.90;;;;;;5138055;28;20431;-79
2022/01/24 03:53:46;;;;;;;248.87;47.93;;;6.20;99.90;;;;;;5123381;28;20833;-79
2022/01/24 03:56:15;;;;;;;299.20;62.70;;;6.20;99.90;;;;;;5130626;27;20474;-80
2022/01/24 03:58:44;;;;;;;280.73;64.67;;;6.20;99.90;;;;;;5145407;27;20996;-79
2022/01/24 04:01:12;;;;;;;265.47;40.03;;;6.20;99.90;;;;;;5126956;27;20470;-80
2022/01/24 04:03:43;;;;;;;265.57;48.23;;;6.20;99.90;;;;;;5124698;28;20492;-79
2022/01/24 04:06:11;;;;;;;334.37;54.30;;;6.20;99.90;;;;;;5121541;28;20467;-79
2022/01/24 04:08:39;;;;;;;266.43;47.20;;;6.20;99.90;;;;;;5121566;28;20944;-79
2022/01/24 04:11:14;;;;;;;284.97;50.13;;;6.20;99.90;;;;;;5122149;28;20937;-79
2022/01/24 04:13:44;;;;;;;285.40;55.17;;;6.20;99.90;;;;;;5122712;28;20439;-79
2022/01/24 04:16:26;;;;;;;112.93;50.83;;;6.20;99.90;;;;;;5124260;28;20459;-80
2022/01/24 04:19:09;;;;;;;226.67;45.73;;;6.20;99.90;;;;;;5122887;28;20470;-79
2022/01/24 04:21:37;;;;;;;289.03;122.17;;;6.20;99.90;;;;;;5124139;27;20587;-79
2022/01/24 04:24:09;;;;;;;220.90;61.27;;;6.20;99.90;;;;;;5142867;27;20450;-78
2022/01/24 04:26:38;;;;;;;184.17;48.73;;;6.20;99.90;;;;;;5122261;27;20501;-79
2022/01/24 04:29:08;;;;;;;216.03;50.87;;;6.20;99.90;;;;;;5122370;28;20447;-79
2022/01/24 04:31:37;;;;;;;152.73;47.40;;;6.20;99.90;;;;;;5122477;28;20454;-79
2022/01/24 04:34:07;;;;;;;236.10;53.97;;;6.20;99.90;;;;;;5122824;28;20432;-79
2022/01/24 04:36:35;;;;;;;296.33;51.30;;;6.20;99.90;;;;;;5122706;28;20520;-79
2022/01/24 04:39:05;;;;;;;340.13;53.67;;;6.20;99.90;;;;;;5123157;28;20447;-79
2022/01/24 04:41:36;;;;;;;286.57;56.17;;;6.20;99.90;;;;;;5141906;27;20474;-80
2022/01/24 04:44:13;;;;;;;255.13;50.67;;;6.20;99.90;;;;;;5143113;27;20454;-78
2022/01/24 04:46:54;;;;;;;409.10;62.10;;;6.20;99.90;;;;;;5142723;27;20492;-78
2022/01/24 04:52:17;;;;;;;309.10;52.33;;;6.20;99.90;;;;;;5127655;27;20538;-79
2022/01/24 04:54:45;;;;;;;339.63;49.97;;;6.20;99.90;;;;;;5124012;28;20514;-79
2022/01/24 04:57:16;;;;;;;257.80;60.73;;;6.20;99.90;;;;;;5123199;28;20467;-80
2022/01/24 04:59:50;;;;;;;336.40;59.03;;;6.20;99.90;;;;;;5121813;28;20439;-79
2022/01/24 05:02:22;;;;;;;266.17;55.67;;;6.20;99.90;;;;;;5122052;28;20494;-79
2022/01/24 05:04:54;;;;;;;145.93;60.93;;;6.20;99.90;;;;;;5121195;28;20981;-79
2022/01/24 05:07:22;;;;;;;414.97;65.57;;;6.20;99.90;;;;;;5123196;27;20535;-79
2022/01/24 05:09:57;;;;;;;282.30;51.60;;;6.20;99.90;;;;;;5133940;27;20956;-80
2022/01/24 05:12:34;;;;;;;414.30;85.47;;;6.20;99.90;;;;;;5123071;28;20453;-79
2022/01/24 05:23:30;;;;;;;124.63;51.37;;;6.20;99.90;;;;;;5122142;28;20466;-78
2022/01/24 05:26:00;;;;;;;182.20;65.83;;;6.20;99.90;;;;;;5121137;28;20541;-79
2022/01/24 05:28:30;;;;;;;179.47;59.43;;;6.20;99.90;;;;;;5121616;28;20534;-79
2022/01/24 05:30:59;;;;;;;153.00;46.27;;;6.20;99.90;;;;;;5140116;27;20446;-79
2022/01/24 05:33:28;;;;;;;317.50;64.83;;;6.20;99.90;;;;;;5143858;27;20477;-80
2022/01/24 05:35:58;;;;;;;293.20;45.20;;;6.20;99.90;;;;;;5142630;27;20502;-79
2022/01/24 05:38:27;;;;;;;277.83;53.93;;;6.20;99.90;;;;;;5142876;27;20445;-80
2022/01/24 05:41:00;;;;;;;291.07;46.47;;;6.20;99.90;;;;;;5122150;28;20519;-79
2022/01/24 05:43:28;;;;;;;269.70;61.13;;;6.20;99.90;;;;;;5129273;27;20467;-79
2022/01/24 05:45:56;;;;;;;320.87;67.80;;;6.20;99.90;;;;;;5137783;27;20442;-79
2022/01/24 05:48:24;;;;;;;338.20;53.53;;;6.20;99.90;;;;;;5141443;27;20835;-79
2022/01/24 05:50:53;;;;;;;234.30;55.47;;;6.20;99.90;;;;;;5141564;27;20485;-79
2022/01/24 05:53:22;;;;;;;289.30;61.60;;;6.20;99.90;;;;;;5141635;27;20439;-79
2022/01/24 05:55:50;;;;;;;284.37;54.43;;;6.20;99.90;;;;;;5141206;27;20446;-79
2022/01/24 05:58:18;;;;;;;307.20;55.27;;;6.20;99.90;;;;;;5141405;27;20435;-79
2022/01/24 06:00:47;;;;;;;140.33;58.60;;;6.20;99.90;;;;;;5140671;27;20442;-79
2022/01/24 06:03:15;;;;;;;285.60;53.30;;;6.20;99.90;;;;;;5142637;27;21001;-79
2022/01/24 06:05:44;;;;;;;126.60;55.90;;;6.20;99.90;;;;;;5121900;28;20440;-79
2022/01/24 06:08:12;;;;;;;356.13;63.03;;;6.20;99.90;;;;;;5120515;28;20456;-80
2022/01/24 06:10:44;;;;;;;344.47;60.30;;;6.20;99.90;;;;;;5121870;28;20431;-78
2022/01/24 06:13:12;;;;;;;331.67;58.53;;;6.20;99.90;;;;;;5120703;28;20928;-79
2022/01/24 06:15:41;;;;;;;140.63;69.33;;;6.20;99.90;;;;;;5118792;28;20453;-79
2022/01/24 06:18:09;;;;;;;260.00;59.70;;;6.20;99.90;;;;;;5120886;28;20538;-79
2022/01/24 06:20:43;;;;;;;450.47;80.90;;;6.20;99.90;;;;;;5120303;28;20447;-80
2022/01/24 06:23:13;;;;;;;281.87;55.63;;;6.20;99.90;;;;;;5120210;28;20536;-80
2022/01/24 06:25:50;;;;;;;306.43;59.20;;;6.20;99.90;;;;;;5114973;28;20452;-80
2022/01/24 06:28:19;;;;;;;227.07;44.67;;;6.10;99.90;;;;;;5100049;28;20550;-79
2022/01/24 06:31:00;;;;;;;287.50;58.93;;;6.10;99.90;;;;;;5101724;28;20444;-80
2022/01/24 06:33:30;;;;;;;129.60;43.90;;;6.20;99.90;;;;;;5100413;28;20459;-79
2022/01/24 06:35:58;;;;;;;128.30;47.53;;;6.20;99.90;;;;;;5101022;28;20439;-80
2022/01/24 06:38:26;;;;;;;361.63;60.57;;;6.10;99.90;;;;;;5101567;28;20444;-79
2022/01/24 06:40:56;;;;;;;308.67;67.23;;;6.20;99.90;;;;;;5101171;28;20501;-79
2022/01/24 06:43:25;;;;;;;174.03;50.27;;;6.20;99.90;;;;;;5100240;28;20496;-79
2022/01/24 06:45:53;;;;;;;223.67;52.23;;;6.20;99.90;;;;;;5117921;28;20506;-80
2022/01/24 06:48:21;;;;;;;330.30;56.03;;;6.20;99.90;;;;;;5122044;28;20436;-79
2022/01/24 06:50:50;;;;;;;166.27;49.37;;;6.20;99.90;;;;;;5121153;28;20457;-79
2022/01/24 06:53:20;;;;;;;225.60;47.27;;;6.20;99.90;;;;;;5122365;28;20435;-79
2022/01/24 06:55:51;;;;;;;182.10;48.23;;;6.20;99.90;;;;;;5120489;28;20928;-79
2022/01/24 06:58:22;;;;;;;252.73;55.47;;;6.20;99.90;;;;;;5120298;28;20451;-80
2022/01/24 07:00:52;;;;;;;268.27;53.93;;;6.20;99.90;;;;;;5120885;28;20478;-79
2022/01/24 07:03:24;;;;;;;224.27;48.80;;;6.20;99.90;;;;;;5121218;28;20459;-79
2022/01/24 07:05:55;;;;;;;245.87;55.37;;;6.20;99.90;;;;;;5120671;28;20470;-79
2022/01/24 07:08:24;;;;;;;377.73;55.50;;;6.20;99.90;;;;;;5121831;28;20435;-79
2022/01/24 07:10:52;;;;;;;189.77;45.60;;;6.20;99.90;;;;;;5120706;28;20530;-78
2022/01/24 07:13:23;;;;;;;220.57;43.37;;;6.20;99.90;;;;;;5122231;28;20450;-79
2022/01/24 07:15:55;;;;;;;213.47;54.70;;;6.20;99.90;;;;;;5120447;28;20443;-82
2022/01/24 07:21:18;;;;;;;436.20;71.73;;;6.20;99.90;;;;;;5105824;28;20455;-79
2022/01/24 07:23:46;;;;;;;170.23;48.43;;;6.20;99.90;;;;;;5137321;28;20495;-79
2022/01/24 07:26:15;;;;;;;229.70;55.67;;;6.20;99.90;;;;;;5120649;28;20467;-79
2022/01/24 07:28:45;;;;;;;227.07;50.63;;;6.20;99.90;;;;;;5125029;28;20435;-79
2022/01/24 07:31:14;;;;;;;275.70;67.00;;;6.20;99.90;;;;;;5125621;28;20816;-79
2022/01/24 07:33:42;;;;;;;231.43;60.97;;;6.20;99.90;;;;;;5124745;28;20475;-79
2022/01/24 07:36:11;;;;;;;312.33;51.90;;;6.20;99.90;;;;;;5141437;27;21014;-80
2022/01/24 07:38:39;;;;;;;144.97;41.57;;;6.20;99.90;;;;;;5123515;28;20530;-79
2022/01/24 07:41:07;;;;;;;292.10;50.77;;;6.20;99.90;;;;;;5124518;28;20459;-79
2022/01/24 07:43:35;;;;;;;238.10;60.90;;;6.20;99.90;;;;;;5124805;28;20494;-79
2022/01/24 07:46:05;;;;;;;236.77;50.77;;;6.20;99.90;;;;;;5124398;28;20496;-79
2022/01/24 07:48:34;;;;;;;286.47;70.67;;;6.20;99.90;;;;;;5124465;28;20488;-79
2022/01/24 07:51:06;;;;;;;280.17;49.33;;;6.20;99.90;;;;;;5123952;28;20475;-79
2022/01/24 07:58:01;;;;;;;1009.50;302.40;;;6.20;99.90;;;;;;4906262;29;20475;-79
2022/01/24 08:00:31;;;;;;;191.73;50.03;;;6.20;99.90;;;;;;5039485;28;20532;-79
2022/01/24 08:02:59;;;;;;;344.37;67.07;;;6.20;99.90;;;;;;5062524;28;20465;-79
2022/01/24 08:05:29;;;;;;;253.20;58.93;;;6.10;99.90;;;;;;5045405;28;20454;-79
2022/01/24 08:08:00;;;;;;;270.57;59.53;;;6.20;99.90;;;;;;5062148;28;20458;-79
2022/01/24 08:10:29;;;;;;;194.73;44.20;;;6.20;99.90;;;;;;5046217;28;20442;-80
2022/01/24 08:12:57;;;;;;;258.80;59.37;;;6.20;99.90;;;;;;5045394;28;20450;-79
2022/01/24 08:15:26;;;;;;;277.17;56.83;;;6.20;99.90;;;;;;5044843;28;20473;-79
2022/01/24 08:17:57;;;;;;;396.10;64.07;;;6.20;99.90;;;;;;5044671;28;20512;-79
2022/01/24 08:20:26;;;;;;;337.80;52.13;;;6.20;99.90;;;;;;5061962;28;20445;-79
2022/01/24 08:23:09;;;;;;;273.17;85.60;;;6.20;99.90;;;;;;5045443;28;20465;-80
2022/01/24 08:25:37;;;;;;;206.47;49.23;;;6.20;99.90;;;;;;5044959;28;20545;-79
2022/01/24 08:28:07;;;;;;;236.60;56.83;;;6.20;99.90;;;;;;5045009;28;20532;-79
2022/01/24 08:30:36;;;;;;;212.03;52.37;;;6.20;99.90;;;;;;5044858;28;20470;-80
2022/01/24 08:33:07;;;;;;;275.03;43.23;;;6.20;99.90;;;;;;5071347;28;20454;-80
2022/01/24 08:35:45;;;;;;;279.57;58.30;;;6.20;99.90;;;;;;5122690;28;20443;-79
2022/01/24 08:38:16;;;;;;;270.43;63.33;;;6.20;99.90;;;;;;5124080;28;20430;-79
2022/01/24 08:40:47;;;;;;;262.33;50.73;;;6.20;99.90;;;;;;5122031;28;20465;-79
2022/01/24 08:43:23;;;;;;;353.83;64.33;;;6.20;99.90;;;;;;5122180;28;20459;-80
2022/01/24 08:45:57;;;;;;;343.53;70.57;;;6.20;99.90;;;;;;5122619;28;20529;-79
2022/01/24 08:48:28;;;;;;;189.70;48.00;;;6.20;99.90;;;;;;5124561;28;20431;-79
2022/01/24 08:50:58;;;;;;;276.13;59.73;;;6.20;99.90;;;;;;5124834;28;20435;-79
2022/01/24 08:53:30;;;;;;;165.43;68.57;;;6.20;99.90;;;;;;5122871;28;20451;-79
2022/01/24 08:56:00;;;;;;;358.27;66.63;;;6.30;99.90;;;;;;5122146;28;20444;-80
2022/01/24 08:59:37;;;;;;;;;;;;;;;;;;;;;
2022/01/24 09:02:54;;;;;;;1800.13;520.70;;;6.20;99.90;;;;;;5095148;28;20443;-78
2022/01/24 09:05:26;;;;;;;333.30;56.70;;;6.30;99.90;;;;;;5122547;28;20551;-79
2022/01/24 09:08:02;;;;;;;246.67;58.07;;;6.20;99.90;;;;;;5123318;28;20474;-79
2022/01/24 09:10:32;;;;;;;291.57;59.80;;;6.20;99.90;;;;;;5124232;28;20480;-79
2022/01/24 09:13:01;;;;;;;357.13;52.20;;;6.30;99.90;;;;;;5123519;28;20448;-78
2022/01/24 09:15:30;;;;;;;211.57;58.97;;;6.30;99.90;;;;;;5122454;28;20503;-78
2022/01/24 09:17:58;;;;;;;253.43;60.13;;;6.30;99.90;;;;;;5119551;28;20511;-78
2022/01/24 09:20:28;;;;;;;286.67;57.43;;;6.30;99.90;;;;;;5119137;28;20451;-78
2022/01/24 09:22:57;;;;;;;329.33;62.17;;;6.30;99.90;;;;;;5119574;28;20465;-79
2022/01/24 09:25:26;;;;;;;349.23;49.77;;;6.30;99.90;;;;;;5119504;28;20562;-78
2022/01/24 09:27:55;;;;;;;279.87;60.83;;;6.30;99.90;;;;;;5119944;28;20466;-78
2022/01/24 09:30:24;;;;;;;279.93;56.17;;;6.30;99.90;;;;;;5120312;28;20960;-78
2022/01/24 09:32:53;;;;;;;158.47;43.33;;;6.40;99.90;;;;;;5119899;28;20447;-78
2022/01/24 09:35:22;;;;;;;365.30;58.80;;;6.40;99.90;;;;;;5118838;28;20443;-78
2022/01/24 09:37:52;;;;;;;359.67;61.30;;;6.40;99.90;;;;;;5135627;27;20578;-78
2022/01/24 09:40:22;;;;;;;303.17;60.13;;;6.40;99.90;;;;;;5120626;28;20459;-78
2022/01/24 09:42:52;;;;;;;247.07;60.47;;;6.40;99.90;;;;;;5136518;27;20519;-78
2022/01/24 09:45:21;;;;;;;337.80;69.77;;;6.40;99.90;;;;;;5120375;28;20562;-78
2022/01/24 09:47:52;;;;;;;266.27;66.67;;;6.40;99.90;;;;;;5120067;28;20986;-79
2022/01/24 09:50:24;;;;;;;271.70;47.00;;;6.50;99.90;;;;;;5118522;28;20489;-79
2022/01/24 09:52:56;;;;;;;278.87;61.53;;;6.40;99.90;;;;;;5118843;28;20447;-78
2022/01/24 09:55:25;;;;;;;452.43;66.17;;;6.40;99.90;;;;;;5119017;28;20439;-78
2022/01/24 09:57:54;;;;;;;303.13;56.80;;;6.50;99.90;;;;;;5118747;28;20562;-78
2022/01/24 10:00:26;;;;;;;328.07;74.50;;;6.40;99.90;;;;;;5135257;27;20443;-78
2022/01/24 10:02:56;;;;;;;378.40;65.63;;;6.50;99.90;;;;;;5118952;28;20431;-78
2022/01/24 10:05:52;;;;;;;307.83;58.63;;;6.50;99.90;;;;;;5118965;28;20462;-78
2022/01/24 10:08:32;;;;;;;249.73;58.90;;;6.50;99.90;;;;;;5117776;28;20431;-78
2022/01/24 10:11:03;;;;;;;329.60;55.37;;;6.50;99.90;;;;;;5118985;28;20446;-78
2022/01/24 10:16:27;;;;;;;439.03;65.27;;;6.50;99.90;;;;;;5118081;28;20467;-78
2022/01/24 10:19:06;;;;;;;221.47;48.07;;;6.50;99.90;;;;;;5119107;28;20803;-78
2022/01/24 10:22:00;;;;;;;214.13;44.13;;;6.60;99.90;;;;;;5117817;28;20439;-78
2022/01/24 10:24:37;;;;;;;157.13;32.30;;;6.60;99.90;;;;;;5117926;28;20462;-78
2022/01/24 10:27:08;;;;;;;341.00;70.20;;;6.60;99.90;;;;;;5117459;28;20466;-78
2022/01/24 10:29:51;;;;;;;319.67;59.10;;;6.60;99.90;;;;;;5135482;27;20804;-78
2022/01/24 10:32:41;;;;;;;338.37;61.17;;;6.60;99.90;;;;;;5118397;28;20457;-78
2022/01/24 10:35:33;;;;;;;397.67;69.47;;;6.60;99.90;;;;;;5118095;28;20968;-78
2022/01/24 10:38:41;;;;;;;242.57;64.73;;;6.60;99.90;;;;;;5119361;28;20466;-78
2022/01/24 10:41:49;;;;;;;235.40;45.03;;;6.60;99.90;;;;;;5095332;28;20444;-79
2022/01/24 10:44:27;;;;;;;287.37;58.87;;;6.60;99.90;;;;;;5118883;28;20494;-79
2022/01/24 10:47:44;;;;;;;407.27;78.87;;;6.70;99.90;;;;;;5059118;28;20888;-79
2022/01/24 10:58:23;;;;;;;;;;;;;;;;;;;;;
2022/01/24 11:00:53;;;;;;;421.80;64.50;;;6.60;99.90;;;;;;4979227;28;20449;-79
2022/01/24 11:03:21;;;;;;;306.03;67.40;;;6.60;99.90;;;;;;4983389;28;20456;-79
2022/01/24 11:05:56;;;;;;;551.13;80.53;;;6.70;99.90;;;;;;5030291;28;20523;-81
2022/01/24 11:08:26;;;;;;;387.30;61.87;;;6.70;99.90;;;;;;5048391;28;20442;-79
2022/01/24 11:10:54;;;;;;;413.33;68.87;;;6.70;99.90;;;;;;5044510;28;20460;-79
2022/01/24 11:13:31;;;;;;;395.13;65.77;;;6.70;99.90;;;;;;5042964;28;20449;-79
2022/01/24 11:16:01;;;;;;;153.93;42.90;;;6.70;99.90;;;;;;5045580;28;20532;-80
2022/01/24 11:18:50;;;;;;;304.30;73.67;;;6.70;99.90;;;;;;5046796;28;20553;-79
2022/01/24 11:21:19;;;;;;;178.67;57.03;;;6.80;99.90;;;;;;5062269;28;20454;-80
2022/01/24 11:23:50;;;;;;;436.63;63.27;;;6.70;99.90;;;;;;5046344;28;20448;-79
2022/01/24 11:26:22;;;;;;;226.83;57.70;;;6.80;99.90;;;;;;5062540;28;20502;-81
2022/01/24 11:29:31;;;;;;;308.33;77.67;;;6.80;99.90;;;;;;5106648;28;20443;-80
2022/01/24 11:35:36;;;;;;;364.90;65.80;;;6.80;99.90;;;;;;5125215;28;20522;-79
2022/01/24 11:38:04;;;;;;;297.83;57.37;;;6.70;99.90;;;;;;5123741;28;20512;-79
2022/01/24 11:40:48;;;;;;;460.77;66.60;;;6.80;99.90;;;;;;5124701;28;20554;-79
2022/01/24 11:43:28;;;;;;;198.27;57.80;;;6.80;99.90;;;;;;5124040;28;20939;-80
2022/01/24 11:46:04;;;;;;;354.43;78.60;;;6.70;99.90;;;;;;5123704;28;20459;-80
2022/01/24 11:48:33;;;;;;;322.83;64.97;;;6.70;99.90;;;;;;5124554;28;20449;-79
2022/01/24 11:51:06;;;;;;;391.73;98.00;;;6.70;99.90;;;;;;5124230;28;20844;-79
2022/01/24 11:53:41;;;;;;;229.00;65.27;;;6.70;99.90;;;;;;5123874;28;20477;-80
2022/01/24 11:56:22;;;;;;;401.20;70.37;;;6.70;99.90;;;;;;5125381;28;20454;-79
2022/01/24 11:58:52;;;;;;;401.37;88.97;;;6.70;99.90;;;;;;5124626;28;20435;-79
2022/01/24 12:01:39;;;;;;;288.50;66.37;;;6.70;99.90;;;;;;5124081;28;20454;-79
2022/01/24 12:04:08;;;;;;;349.27;79.47;;;6.70;99.90;;;;;;5124217;28;20886;-79
2022/01/24 12:07:13;;;;;;;392.17;95.70;;;6.70;99.90;;;;;;5122485;28;20544;-79
2022/01/24 12:09:42;;;;;;;252.70;68.17;;;6.60;99.90;;;;;;5123110;28;20455;-79
2022/01/24 12:12:48;;;;;;;268.53;61.87;;;6.70;99.90;;;;;;5122418;28;20516;-79
2022/01/24 12:16:04;;;;;;;434.87;92.73;;;6.60;99.90;;;;;;5123472;28;20464;-79
2022/01/24 12:19:02;;;;;;;296.97;72.57;;;6.60;99.90;;;;;;5122520;28;20459;-79
2022/01/24 12:21:36;;;;;;;359.50;87.90;;;6.50;99.90;;;;;;5100745;28;20893;-79
2022/01/24 12:24:08;;;;;;;339.20;83.53;;;6.50;99.90;;;;;;5121792;28;20439;-79
2022/01/24 12:26:43;;;;;;;381.00;78.07;;;6.50;99.90;;;;;;5122232;28;20475;-80
2022/01/24 12:29:14;;;;;;;370.47;89.57;;;6.50;99.90;;;;;;5123168;28;20434;-79
2022/01/24 12:31:46;;;;;;;401.53;84.60;;;6.50;99.90;;;;;;5123552;28;20451;-80
2022/01/24 12:34:24;;;;;;;317.93;70.37;;;6.60;99.90;;;;;;5125038;28;20427;-79
2022/01/24 12:37:07;;;;;;;291.50;78.47;;;6.60;99.90;;;;;;5139546;27;20475;-80
2022/01/24 12:39:45;;;;;;;409.67;88.27;;;6.60;99.90;;;;;;5123087;28;20447;-78
2022/01/24 12:42:19;;;;;;;334.80;86.53;;;6.60;99.90;;;;;;5122059;28;20534;-79
2022/01/24 12:47:38;;;;;;;263.67;71.60;;;6.60;99.90;;;;;;5122375;28;20463;-79
2022/01/24 12:50:10;;;;;;;318.43;69.23;;;6.60;99.90;;;;;;5122171;28;20995;-79
2022/01/24 12:52:40;;;;;;;285.03;76.73;;;6.60;99.90;;;;;;5124893;28;20428;-79
2022/01/24 12:55:10;;;;;;;366.73;89.80;;;6.70;99.90;;;;;;5123653;28;20435;-80
2022/01/24 12:57:43;;;;;;;264.93;68.40;;;6.60;99.90;;;;;;5122726;28;20476;-79
2022/01/24 13:00:15;;;;;;;309.17;66.47;;;6.70;99.90;;;;;;5123416;28;20501;-79
2022/01/24 13:02:44;;;;;;;290.87;73.80;;;6.70;99.90;;;;;;5122623;28;20444;-79
2022/01/24 13:05:17;;;;;;;372.03;80.73;;;6.60;99.90;;;;;;5123201;28;20819;-79
2022/01/24 13:07:50;;;;;;;320.13;83.13;;;6.60;99.90;;;;;;5122717;28;20546;-79
2022/01/24 13:10:22;;;;;;;266.00;65.27;;;6.60;99.90;;;;;;5122302;28;20443;-79
2022/01/24 13:12:57;;;;;;;257.70;73.13;;;6.60;99.90;;;;;;5140231;27;20975;-80
2022/01/24 13:20:25;;;;;;;300.97;76.90;;;6.60;99.90;;;;;;5122144;28;20447;-77
2022/01/24 13:21:16;;;;;;;391.40;73.00;;;6.60;99.90;;;;;;5123870;28;20470;-79
2022/01/24 13:23:51;;;;;;;289.40;78.60;;;6.60;99.90;;;;;;5122431;28;20440;-79
2022/01/24 13:26:20;;;;;;;233.10;82.07;;;6.60;99.90;;;;;;5121881;28;20479;-79
2022/01/24 13:28:48;;;;;;;407.17;78.47;;;6.60;99.90;;;;;;5122753;28;20507;-79
2022/01/24 13:31:16;;;;;;;278.60;63.77;;;6.60;99.90;;;;;;5124604;28;20444;-79
2022/01/24 13:33:46;;;;;;;342.40;88.87;;;6.60;99.90;;;;;;5123509;28;20452;-79
2022/01/24 13:36:18;;;;;;;437.87;80.47;;;6.60;99.90;;;;;;5117407;28;20571;-78
2022/01/24 13:38:49;;;;;;;256.43;76.17;;;6.60;99.90;;;;;;5117059;28;20906;-78
2022/01/24 13:41:19;;;;;;;335.80;70.30;;;6.60;99.90;;;;;;5118685;28;20787;-78
2022/01/24 13:43:54;;;;;;;376.87;99.40;;;6.60;99.90;;;;;;5117167;28;20456;-78
2022/01/24 13:46:25;;;;;;;277.67;79.77;;;6.60;99.90;;;;;;5117204;28;20644;-79
2022/01/24 13:49:00;;;;;;;322.30;73.63;;;6.60;99.90;;;;;;5117441;28;20435;-78
2022/01/24 13:51:34;;;;;;;242.47;67.60;;;6.60;99.90;;;;;;5119246;28;20439;-79
2022/01/24 13:54:05;;;;;;;348.10;81.33;;;6.60;99.90;;;;;;5119857;28;20455;-79
2022/01/24 13:56:35;;;;;;;392.80;83.43;;;6.50;99.90;;;;;;5121298;28;20459;-79
2022/01/24 13:59:13;;;;;;;321.47;71.63;;;6.60;99.90;;;;;;5123175;28;20432;-80
2022/01/24 14:01:52;;;;;;;309.17;86.67;;;6.60;99.90;;;;;;5122305;28;20525;-79
2022/01/24 14:04:33;;;;;;;474.27;86.97;;;6.60;99.90;;;;;;5124964;28;20427;-80
2022/01/24 14:07:05;;;;;;;442.33;101.07;;;6.60;99.90;;;;;;5122498;28;20491;-80
2022/01/24 14:09:45;;;;;;;311.60;82.97;;;6.60;99.90;;;;;;5122415;28;20436;-81
2022/01/24 14:12:16;;;;;;;309.93;86.83;;;6.60;99.90;;;;;;5123320;28;20435;-79
2022/01/24 14:14:58;;;;;;;341.57;82.63;;;6.60;99.90;;;;;;5123181;28;20440;-80
2022/01/24 14:17:44;;;;;;;421.07;110.83;;;6.50;99.90;;;;;;5121303;28;20474;-80
2022/01/24 14:20:16;;;;;;;288.83;63.37;;;6.60;99.90;;;;;;5120302;28;20485;-80
2022/01/24 14:22:51;;;;;;;379.70;74.17;;;6.50;99.90;;;;;;5120556;28;20971;-79
2022/01/24 14:25:21;;;;;;;431.60;85.30;;;6.60;99.90;;;;;;5119858;28;20434;-80
2022/01/24 14:27:51;;;;;;;348.57;75.17;;;6.60;99.90;;;;;;5119567;28;20479;-80
2022/01/24 14:30:34;;;;;;;318.20;79.00;;;6.50;99.90;;;;;;5121865;28;20419;-79
2022/01/24 14:33:06;;;;;;;337.73;73.07;;;6.50;99.90;;;;;;5120075;28;20432;-80